sensor_id;sensor_type;location;lat;lon;timestamp;pressure;altitude;pressure_sealevel;temperature;humidity
12793;BME280;6460;42.684;23.260;2023-05-10T00:00:13;94814.19;;;9.35;100.00
12793;BME280;6460;42.684;23.260;2023-05-10T00:02:40;94808.81;;;9.35;100.00
12793;BME280;6460;42.684;23.260;2023-05-10T00:05:08;94810.66;;;9.31;100.00
12793;BME280;6460;42.684;23.260;2023-05-10T00:07:36;94807.22;;;9.46;100.00
12793;BME280;6460;42.684;23.260;2023-05-10T00:10:04;94800.84;;;9.23;100.00
12793;BME280;6460;42.684;23.260;2023-05-10T00:12:31;94799.94;;;9.19;100.00
12793;BME280;6460;42.684;23.260;2023-05-10T00:14:58;94797.25;;;9.31;100.00
12793;BME280;6460;42.684;23.260;2023-05-10T00:17:27;94792.34;;;9.21;100.00
12793;BME280;6460;42.684;23.260;2023-05-10T00:19:55;94787.38;;;9.35;100.00
12793;BME280;6460;42.684;23.260;2023-05-10T00:22:22;94785.16;;;9.37;100.00
12793;BME280;6460;42.684;23.260;2023-05-10T00:24:49;94786.63;;;9.35;100.00
12793;BME280;6460;42.684;23.260;2023-05-10T00:27:17;94782.69;;;9.32;100.00
12793;BME280;6460;42.684;23.260;2023-05-10T00:29:44;94784.84;;;9.27;100.00
12793;BME280;6460;42.684;23.260;2023-05-10T00:32:11;94785.53;;;9.24;100.00
12793;BME280;6460;42.684;23.260;2023-05-10T00:34:46;94786.09;;;9.17;100.00
12793;BME280;6460;42.684;23.260;2023-05-10T00:37:13;94781.22;;;9.07;100.00
12793;BME280;6460;42.684;23.260;2023-05-10T00:39:40;94778.31;;;9.12;100.00
12793;BME280;6460;42.684;23.260;2023-05-10T00:42:08;94780.22;;;9.39;100.00
12793;BME280;6460;42.684;23.260;2023-05-10T00:44:35;94778.59;;;9.23;100.00
12793;BME280;6460;42.684;23.260;2023-05-10T00:47:02;94771.47;;;9.42;100.00
12793;BME280;6460;42.684;23.260;2023-05-10T00:49:30;94765.59;;;9.37;100.00
12793;BME280;6460;42.684;23.260;2023-05-10T00:51:59;94770.31;;;9.28;100.00
12793;BME280;6460;42.684;23.260;2023-05-10T00:54:27;94769.34;;;9.20;100.00
12793;BME280;6460;42.684;23.260;2023-05-10T00:56:54;94775.19;;;9.10;100.00
12793;BME280;6460;42.684;23.260;2023-05-10T00:59:22;94765.75;;;9.28;100.00
12793;BME280;6460;42.684;23.260;2023-05-10T01:01:50;94764.50;;;8.98;100.00
12793;BME280;6460;42.684;23.260;2023-05-10T01:04:18;94763.78;;;9.13;100.00
12793;BME280;6460;42.684;23.260;2023-05-10T01:06:51;94762.75;;;9.18;100.00
12793;BME280;6460;42.684;23.260;2023-05-10T01:09:20;94762.34;;;9.03;100.00
12793;BME280;6460;42.684;23.260;2023-05-10T01:11:48;94762.59;;;9.26;100.00
12793;BME280;6460;42.684;23.260;2023-05-10T01:14:18;94754.47;;;9.23;100.00
12793;BME280;6460;42.684;23.260;2023-05-10T01:16:48;94765.78;;;9.16;100.00
12793;BME280;6460;42.684;23.260;2023-05-10T01:19:19;94759.78;;;9.07;100.00
12793;BME280;6460;42.684;23.260;2023-05-10T01:21:54;94748.88;;;8.88;100.00
12793;BME280;6460;42.684;23.260;2023-05-10T01:24:46;94755.88;;;8.77;100.00
12793;BME280;6460;42.684;23.260;2023-05-10T01:30:41;94750.41;;;8.73;100.00
12793;BME280;6460;42.684;23.260;2023-05-10T01:33:22;94747.25;;;8.83;100.00
12793;BME280;6460;42.684;23.260;2023-05-10T01:35:55;94743.75;;;8.95;100.00
12793;BME280;6460;42.684;23.260;2023-05-10T01:38:29;94738.69;;;8.93;100.00
12793;BME280;6460;42.684;23.260;2023-05-10T01:41:05;94735.44;;;8.72;100.00
12793;BME280;6460;42.684;23.260;2023-05-10T01:43:41;94733.69;;;8.92;100.00
12793;BME280;6460;42.684;23.260;2023-05-10T01:46:16;94738.94;;;8.61;100.00
12793;BME280;6460;42.684;23.260;2023-05-10T01:48:48;94735.22;;;8.77;100.00
12793;BME280;6460;42.684;23.260;2023-05-10T01:51:23;94720.00;;;8.81;100.00
12793;BME280;6460;42.684;23.260;2023-05-10T01:53:54;94721.88;;;8.81;100.00
12793;BME280;6460;42.684;23.260;2023-05-10T01:56:26;94731.09;;;8.68;100.00
12793;BME280;6460;42.684;23.260;2023-05-10T01:58:56;94729.97;;;8.69;100.00
12793;BME280;6460;42.684;23.260;2023-05-10T02:01:24;94735.22;;;8.77;100.00
12793;BME280;6460;42.684;23.260;2023-05-10T02:03:55;94731.97;;;8.72;100.00
12793;BME280;6460;42.684;23.260;2023-05-10T02:06:25;94733.28;;;8.78;100.00
12793;BME280;6460;42.684;23.260;2023-05-10T02:08:54;94722.59;;;8.66;100.00
12793;BME280;6460;42.684;23.260;2023-05-10T02:11:23;94728.19;;;8.73;100.00
12793;BME280;6460;42.684;23.260;2023-05-10T02:13:53;94731.69;;;8.89;100.00
12793;BME280;6460;42.684;23.260;2023-05-10T02:16:24;94727.25;;;8.81;100.00
12793;BME280;6460;42.684;23.260;2023-05-10T02:18:57;94737.94;;;8.53;100.00
12793;BME280;6460;42.684;23.260;2023-05-10T02:21:27;94733.84;;;8.71;100.00
12793;BME280;6460;42.684;23.260;2023-05-10T02:23:55;94724.41;;;8.62;100.00
12793;BME280;6460;42.684;23.260;2023-05-10T02:26:24;94739.16;;;8.56;100.00
12793;BME280;6460;42.684;23.260;2023-05-10T02:28:53;94736.50;;;8.43;100.00
12793;BME280;6460;42.684;23.260;2023-05-10T02:31:22;94733.09;;;8.59;100.00
12793;BME280;6460;42.684;23.260;2023-05-10T02:33:50;94731.47;;;8.18;100.00
12793;BME280;6460;42.684;23.260;2023-05-10T02:36:21;94724.88;;;8.39;100.00
12793;BME280;6460;42.684;23.260;2023-05-10T02:38:50;94732.94;;;8.15;100.00
12793;BME280;6460;42.684;23.260;2023-05-10T02:41:19;94730.69;;;8.05;100.00
12793;BME280;6460;42.684;23.260;2023-05-10T02:43:50;94732.25;;;8.06;100.00
12793;BME280;6460;42.684;23.260;2023-05-10T02:46:17;94727.22;;;8.05;100.00
12793;BME280;6460;42.684;23.260;2023-05-10T02:48:45;94718.66;;;7.99;100.00
12793;BME280;6460;42.684;23.260;2023-05-10T02:51:14;94722.00;;;8.08;100.00
12793;BME280;6460;42.684;23.260;2023-05-10T02:53:46;94724.13;;;7.90;100.00
12793;BME280;6460;42.684;23.260;2023-05-10T02:56:23;94736.91;;;7.85;100.00
12793;BME280;6460;42.684;23.260;2023-05-10T02:58:52;94733.56;;;7.76;100.00
12793;BME280;6460;42.684;23.260;2023-05-10T03:01:19;94732.47;;;7.65;100.00
12793;BME280;6460;42.684;23.260;2023-05-10T03:03:47;94728.47;;;7.71;100.00
12793;BME280;6460;42.684;23.260;2023-05-10T03:06:14;94726.34;;;7.64;100.00
12793;BME280;6460;42.684;23.260;2023-05-10T03:08:42;94722.88;;;7.64;100.00
12793;BME280;6460;42.684;23.260;2023-05-10T03:11:21;94728.34;;;7.67;100.00
12793;BME280;6460;42.684;23.260;2023-05-10T03:13:59;94740.91;;;7.55;100.00
12793;BME280;6460;42.684;23.260;2023-05-10T03:16:37;94732.88;;;7.55;100.00
12793;BME280;6460;42.684;23.260;2023-05-10T03:19:09;94731.44;;;7.69;100.00
12793;BME280;6460;42.684;23.260;2023-05-10T03:21:41;94732.66;;;7.60;100.00
12793;BME280;6460;42.684;23.260;2023-05-10T03:24:10;94734.22;;;7.49;100.00
12793;BME280;6460;42.684;23.260;2023-05-10T03:26:43;94741.41;;;7.69;100.00
12793;BME280;6460;42.684;23.260;2023-05-10T03:29:13;94752.28;;;7.64;100.00
12793;BME280;6460;42.684;23.260;2023-05-10T03:31:41;94738.81;;;7.72;100.00
12793;BME280;6460;42.684;23.260;2023-05-10T03:34:08;94741.59;;;7.64;100.00
12793;BME280;6460;42.684;23.260;2023-05-10T03:36:36;94753.41;;;7.63;100.00
12793;BME280;6460;42.684;23.260;2023-05-10T03:39:03;94750.09;;;7.90;100.00
12793;BME280;6460;42.684;23.260;2023-05-10T03:41:30;94751.00;;;7.94;100.00
12793;BME280;6460;42.684;23.260;2023-05-10T03:43:59;94755.44;;;7.66;100.00
12793;BME280;6460;42.684;23.260;2023-05-10T03:46:26;94761.00;;;7.73;100.00
12793;BME280;6460;42.684;23.260;2023-05-10T03:48:53;94761.22;;;7.68;100.00
12793;BME280;6460;42.684;23.260;2023-05-10T03:51:21;94761.59;;;7.78;100.00
12793;BME280;6460;42.684;23.260;2023-05-10T03:53:48;94765.47;;;7.69;100.00
12793;BME280;6460;42.684;23.260;2023-05-10T03:56:15;94769.81;;;7.73;100.00
12793;BME280;6460;42.684;23.260;2023-05-10T03:58:42;94763.59;;;7.81;100.00
12793;BME280;6460;42.684;23.260;2023-05-10T04:01:11;94768.47;;;7.79;100.00
12793;BME280;6460;42.684;23.260;2023-05-10T04:03:39;94770.59;;;7.86;100.00
12793;BME280;6460;42.684;23.260;2023-05-10T04:06:06;94779.72;;;7.85;100.00
12793;BME280;6460;42.684;23.260;2023-05-10T04:08:37;94780.97;;;7.75;100.00
12793;BME280;6460;42.684;23.260;2023-05-10T04:11:05;94772.97;;;7.87;100.00
12793;BME280;6460;42.684;23.260;2023-05-10T04:13:33;94782.09;;;8.11;100.00
12793;BME280;6460;42.684;23.260;2023-05-10T04:16:00;94778.88;;;8.05;100.00
12793;BME280;6460;42.684;23.260;2023-05-10T04:18:29;94777.09;;;7.97;100.00
12793;BME280;6460;42.684;23.260;2023-05-10T04:20:56;94780.63;;;7.89;100.00
12793;BME280;6460;42.684;23.260;2023-05-10T04:23:24;94784.00;;;7.98;100.00
12793;BME280;6460;42.684;23.260;2023-05-10T04:25:52;94785.00;;;7.81;100.00
12793;BME280;6460;42.684;23.260;2023-05-10T04:28:20;94780.63;;;7.89;100.00
12793;BME280;6460;42.684;23.260;2023-05-10T04:30:47;94777.84;;;7.73;100.00
12793;BME280;6460;42.684;23.260;2023-05-10T04:33:15;94782.41;;;7.85;100.00
12793;BME280;6460;42.684;23.260;2023-05-10T04:35:44;94792.78;;;7.74;100.00
12793;BME280;6460;42.684;23.260;2023-05-10T04:38:11;94787.56;;;8.14;100.00
12793;BME280;6460;42.684;23.260;2023-05-10T04:40:40;94786.09;;;7.80;100.00
12793;BME280;6460;42.684;23.260;2023-05-10T04:43:07;94784.66;;;7.95;100.00
12793;BME280;6460;42.684;23.260;2023-05-10T04:45:35;94781.22;;;8.07;100.00
12793;BME280;6460;42.684;23.260;2023-05-10T04:48:02;94784.03;;;8.22;100.00
12793;BME280;6460;42.684;23.260;2023-05-10T04:50:29;94785.25;;;8.01;100.00
12793;BME280;6460;42.684;23.260;2023-05-10T04:52:58;94790.59;;;8.01;100.00
12793;BME280;6460;42.684;23.260;2023-05-10T04:55:26;94787.38;;;8.07;100.00
12793;BME280;6460;42.684;23.260;2023-05-10T04:57:53;94781.91;;;8.40;100.00
12793;BME280;6460;42.684;23.260;2023-05-10T05:00:23;94783.34;;;8.49;100.00
12793;BME280;6460;42.684;23.260;2023-05-10T05:02:50;94787.69;;;8.06;100.00
12793;BME280;6460;42.684;23.260;2023-05-10T05:05:18;94789.25;;;8.19;100.00
12793;BME280;6460;42.684;23.260;2023-05-10T05:07:45;94790.59;;;8.01;100.00
12793;BME280;6460;42.684;23.260;2023-05-10T05:10:14;94784.22;;;8.17;100.00
12793;BME280;6460;42.684;23.260;2023-05-10T05:12:41;94795.84;;;8.21;100.00
12793;BME280;6460;42.684;23.260;2023-05-10T05:15:09;94789.63;;;8.29;100.00
12793;BME280;6460;42.684;23.260;2023-05-10T05:17:37;94797.63;;;8.54;100.00
12793;BME280;6460;42.684;23.260;2023-05-10T05:20:06;94793.84;;;8.42;100.00
12793;BME280;6460;42.684;23.260;2023-05-10T05:22:33;94795.19;;;8.36;100.00
12793;BME280;6460;42.684;23.260;2023-05-10T05:25:01;94796.75;;;8.37;100.00
12793;BME280;6460;42.684;23.260;2023-05-10T05:27:31;94801.88;;;8.30;100.00
12793;BME280;6460;42.684;23.260;2023-05-10T05:29:58;94804.22;;;8.56;100.00
12793;BME280;6460;42.684;23.260;2023-05-10T05:32:25;94803.78;;;8.42;100.00
12793;BME280;6460;42.684;23.260;2023-05-10T05:34:53;94802.56;;;8.52;100.00
12793;BME280;6460;42.684;23.260;2023-05-10T05:37:21;94819.25;;;8.24;100.00
12793;BME280;6460;42.684;23.260;2023-05-10T05:39:48;94808.56;;;8.36;100.00
12793;BME280;6460;42.684;23.260;2023-05-10T05:42:15;94808.56;;;8.61;100.00
12793;BME280;6460;42.684;23.260;2023-05-10T05:44:45;94810.13;;;8.25;100.00
12793;BME280;6460;42.684;23.260;2023-05-10T05:47:13;94817.47;;;8.16;100.00
12793;BME280;6460;42.684;23.260;2023-05-10T05:49:40;94820.59;;;8.18;100.00
12793;BME280;6460;42.684;23.260;2023-05-10T05:52:07;94818.84;;;8.34;100.00
12793;BME280;6460;42.684;23.260;2023-05-10T05:54:35;94814.50;;;8.42;100.00
12793;BME280;6460;42.684;23.260;2023-05-10T05:57:02;94820.84;;;8.74;100.00
12793;BME280;6460;42.684;23.260;2023-05-10T05:59:30;94819.16;;;8.69;100.00
12793;BME280;6460;42.684;23.260;2023-05-10T06:01:58;94825.78;;;8.47;100.00
12793;BME280;6460;42.684;23.260;2023-05-10T06:04:26;94827.31;;;8.36;100.00
12793;BME280;6460;42.684;23.260;2023-05-10T06:06:53;94827.28;;;8.24;100.00
12793;BME280;6460;42.684;23.260;2023-05-10T06:09:21;94830.13;;;8.64;100.00
12793;BME280;6460;42.684;23.260;2023-05-10T06:11:50;94831.34;;;8.67;100.00
12793;BME280;6460;42.684;23.260;2023-05-10T06:14:17;94828.53;;;8.75;100.00
12793;BME280;6460;42.684;23.260;2023-05-10T06:16:44;94830.00;;;8.73;100.00
12793;BME280;6460;42.684;23.260;2023-05-10T06:19:12;94832.22;;;8.83;100.00
12793;BME280;6460;42.684;23.260;2023-05-10T06:21:39;94839.78;;;9.05;100.00
12793;BME280;6460;42.684;23.260;2023-05-10T06:24:06;94832.16;;;9.07;100.00
12793;BME280;6460;42.684;23.260;2023-05-10T06:26:33;94829.19;;;8.84;100.00
12793;BME280;6460;42.684;23.260;2023-05-10T06:29:00;94828.41;;;8.72;100.00
12793;BME280;6460;42.684;23.260;2023-05-10T06:31:27;94829.84;;;8.93;100.00
12793;BME280;6460;42.684;23.260;2023-05-10T06:33:54;94828.16;;;9.01;100.00
12793;BME280;6460;42.684;23.260;2023-05-10T06:36:23;94829.41;;;8.91;100.00
12793;BME280;6460;42.684;23.260;2023-05-10T06:38:51;94844.78;;;9.07;100.00
12793;BME280;6460;42.684;23.260;2023-05-10T06:41:19;94835.00;;;9.26;100.00
12793;BME280;6460;42.684;23.260;2023-05-10T06:43:46;94836.84;;;9.10;100.00
12793;BME280;6460;42.684;23.260;2023-05-10T06:46:13;94838.78;;;9.37;100.00
12793;BME280;6460;42.684;23.260;2023-05-10T06:48:40;94839.31;;;9.43;100.00
12793;BME280;6460;42.684;23.260;2023-05-10T06:51:07;94834.97;;;9.38;100.00
12793;BME280;6460;42.684;23.260;2023-05-10T06:53:36;94842.78;;;9.43;100.00
12793;BME280;6460;42.684;23.260;2023-05-10T06:56:04;94847.53;;;9.22;100.00
12793;BME280;6460;42.684;23.260;2023-05-10T06:58:31;94849.38;;;9.46;100.00
12793;BME280;6460;42.684;23.260;2023-05-10T07:01:02;94847.47;;;9.46;100.00
12793;BME280;6460;42.684;23.260;2023-05-10T07:03:31;94849.69;;;9.17;100.00
12793;BME280;6460;42.684;23.260;2023-05-10T07:06:02;94847.50;;;9.34;100.00
12793;BME280;6460;42.684;23.260;2023-05-10T07:08:30;94847.47;;;9.46;100.00
12793;BME280;6460;42.684;23.260;2023-05-10T07:11:03;94844.44;;;9.48;100.00
12793;BME280;6460;42.684;23.260;2023-05-10T07:13:31;94849.72;;;9.44;100.00
12793;BME280;6460;42.684;23.260;2023-05-10T07:15:58;94835.94;;;9.74;100.00
12793;BME280;6460;42.684;23.260;2023-05-10T07:18:25;94849.47;;;9.49;100.00
12793;BME280;6460;42.684;23.260;2023-05-10T07:20:53;94851.16;;;9.42;100.00
12793;BME280;6460;42.684;23.260;2023-05-10T07:23:20;94859.94;;;9.54;100.00
12793;BME280;6460;42.684;23.260;2023-05-10T07:25:48;94851.25;;;9.45;100.00
12793;BME280;6460;42.684;23.260;2023-05-10T07:28:18;94853.63;;;9.47;100.00
12793;BME280;6460;42.684;23.260;2023-05-10T07:30:45;94854.97;;;9.41;100.00
12793;BME280;6460;42.684;23.260;2023-05-10T07:33:14;94857.31;;;9.42;100.00
12793;BME280;6460;42.684;23.260;2023-05-10T07:35:41;94856.09;;;9.40;100.00
12793;BME280;6460;42.684;23.260;2023-05-10T07:38:08;94857.94;;;9.51;100.00
12793;BME280;6460;42.684;23.260;2023-05-10T07:40:36;94857.59;;;9.25;100.00
12793;BME280;6460;42.684;23.260;2023-05-10T07:43:04;94862.44;;;9.08;100.00
12793;BME280;6460;42.684;23.260;2023-05-10T07:45:33;94863.41;;;9.27;100.00
12793;BME280;6460;42.684;23.260;2023-05-10T07:48:01;94850.94;;;9.47;100.00
12793;BME280;6460;42.684;23.260;2023-05-10T07:50:28;94864.16;;;9.68;100.00
12793;BME280;6460;42.684;23.260;2023-05-10T07:52:56;94867.63;;;9.40;100.00
12793;BME280;6460;42.684;23.260;2023-05-10T07:55:24;94863.47;;;9.71;100.00
12793;BME280;6460;42.684;23.260;2023-05-10T07:57:51;94865.72;;;9.29;100.00
12793;BME280;6460;42.684;23.260;2023-05-10T08:00:19;94864.72;;;9.61;100.00
12793;BME280;6460;42.684;23.260;2023-05-10T08:02:48;94870.34;;;9.84;100.00
12793;BME280;6460;42.684;23.260;2023-05-10T08:05:16;94869.31;;;9.88;100.00
12793;BME280;6460;42.684;23.260;2023-05-10T08:07:43;94876.25;;;9.62;100.00
12793;BME280;6460;42.684;23.260;2023-05-10T08:10:10;94876.66;;;9.76;100.00
12793;BME280;6460;42.684;23.260;2023-05-10T08:12:38;94880.25;;;9.95;100.00
12793;BME280;6460;42.684;23.260;2023-05-10T08:15:06;94877.75;;;9.75;100.00
12793;BME280;6460;42.684;23.260;2023-05-10T08:17:33;94873.66;;;10.21;100.00
12793;BME280;6460;42.684;23.260;2023-05-10T08:20:02;94878.97;;;10.05;100.00
12793;BME280;6460;42.684;23.260;2023-05-10T08:22:29;94870.78;;;10.14;100.00
12793;BME280;6460;42.684;23.260;2023-05-10T08:24:56;94868.13;;;9.74;100.00
12793;BME280;6460;42.684;23.260;2023-05-10T08:27:24;94869.97;;;10.13;100.00
12793;BME280;6460;42.684;23.260;2023-05-10T08:29:50;94875.19;;;10.37;100.00
12793;BME280;6460;42.684;23.260;2023-05-10T08:32:17;94871.44;;;10.10;100.00
12793;BME280;6460;42.684;23.260;2023-05-10T08:34:44;94873.22;;;10.34;100.00
12793;BME280;6460;42.684;23.260;2023-05-10T08:37:13;94879.13;;;10.40;100.00
12793;BME280;6460;42.684;23.260;2023-05-10T08:39:40;94879.56;;;9.98;100.00
12793;BME280;6460;42.684;23.260;2023-05-10T08:42:07;94861.28;;;10.04;100.00
12793;BME280;6460;42.684;23.260;2023-05-10T08:44:36;94865.28;;;9.67;100.00
12793;BME280;6460;42.684;23.260;2023-05-10T08:47:05;94871.09;;;9.69;100.00
12793;BME280;6460;42.684;23.260;2023-05-10T08:49:33;94878.47;;;10.15;100.00
12793;BME280;6460;42.684;23.260;2023-05-10T08:52:03;94875.28;;;10.41;100.00
12793;BME280;6460;42.684;23.260;2023-05-10T08:54:36;94868.28;;;10.36;100.00
12793;BME280;6460;42.684;23.260;2023-05-10T08:57:03;94870.38;;;10.27;100.00
12793;BME280;6460;42.684;23.260;2023-05-10T08:59:31;94868.28;;;10.36;100.00
12793;BME280;6460;42.684;23.260;2023-05-10T09:01:59;94871.81;;;10.25;100.00
12793;BME280;6460;42.684;23.260;2023-05-10T09:04:28;94878.16;;;10.63;100.00
12793;BME280;6460;42.684;23.260;2023-05-10T09:06:56;94872.59;;;10.56;100.00
12793;BME280;6460;42.684;23.260;2023-05-10T09:09:24;94877.28;;;10.59;100.00
12793;BME280;6460;42.684;23.260;2023-05-10T09:11:54;94878.94;;;10.64;100.00
12793;BME280;6460;42.684;23.260;2023-05-10T09:14:23;94863.34;;;10.54;100.00
12793;BME280;6460;42.684;23.260;2023-05-10T09:16:51;94878.50;;;10.78;100.00
12793;BME280;6460;42.684;23.260;2023-05-10T09:19:19;94866.63;;;10.63;100.00
12793;BME280;6460;42.684;23.260;2023-05-10T09:21:46;94872.38;;;11.12;100.00
12793;BME280;6460;42.684;23.260;2023-05-10T09:24:13;94865.78;;;10.59;100.00
12793;BME280;6460;42.684;23.260;2023-05-10T09:26:46;94871.22;;;10.78;100.00
12793;BME280;6460;42.684;23.260;2023-05-10T09:29:15;94880.75;;;10.76;100.00
12793;BME280;6460;42.684;23.260;2023-05-10T09:31:46;94874.34;;;10.80;100.00
12793;BME280;6460;42.684;23.260;2023-05-10T09:34:18;94870.16;;;10.83;100.00
12793;BME280;6460;42.684;23.260;2023-05-10T09:36:52;94876.38;;;11.02;100.00
12793;BME280;6460;42.684;23.260;2023-05-10T09:39:20;94876.75;;;11.20;100.00
12793;BME280;6460;42.684;23.260;2023-05-10T09:41:47;94872.53;;;11.19;100.00
12793;BME280;6460;42.684;23.260;2023-05-10T09:44:18;94867.56;;;10.71;100.00
12793;BME280;6460;42.684;23.260;2023-05-10T09:46:49;94873.06;;;11.09;100.00
12793;BME280;6460;42.684;23.260;2023-05-10T09:49:18;94874.78;;;11.17;100.00
12793;BME280;6460;42.684;23.260;2023-05-10T09:51:46;94873.78;;;11.06;90.14
12793;BME280;6460;42.684;23.260;2023-05-10T09:54:15;94866.59;;;10.94;90.54
12793;BME280;6460;42.684;23.260;2023-05-10T09:56:43;94865.75;;;11.25;90.07
12793;BME280;6460;42.684;23.260;2023-05-10T09:59:11;94860.19;;;11.18;90.60
12793;BME280;6460;42.684;23.260;2023-05-10T10:01:41;94859.34;;;11.33;89.27
12793;BME280;6460;42.684;23.260;2023-05-10T10:04:09;94862.75;;;11.30;89.46
12793;BME280;6460;42.684;23.260;2023-05-10T10:06:37;94862.06;;;11.33;89.45
12793;BME280;6460;42.684;23.260;2023-05-10T10:09:04;94845.94;;;11.72;89.10
12793;BME280;6460;42.684;23.260;2023-05-10T10:11:35;94854.56;;;11.81;87.24
12793;BME280;6460;42.684;23.260;2023-05-10T10:14:03;94842.13;;;12.14;85.64
12793;BME280;6460;42.684;23.260;2023-05-10T10:16:30;94844.63;;;11.27;87.05
12793;BME280;6460;42.684;23.260;2023-05-10T10:18:59;94849.91;;;11.78;85.96
12793;BME280;6460;42.684;23.260;2023-05-10T10:21:27;94842.50;;;11.94;86.00
12793;BME280;6460;42.684;23.260;2023-05-10T10:23:54;94846.91;;;11.63;86.92
12793;BME280;6460;42.684;23.260;2023-05-10T10:26:21;94855.13;;;11.32;87.89
12793;BME280;6460;42.684;23.260;2023-05-10T10:28:56;94844.94;;;11.41;87.90
12793;BME280;6460;42.684;23.260;2023-05-10T10:31:32;94861.22;;;11.29;87.73
12793;BME280;6460;42.684;23.260;2023-05-10T10:34:05;94857.53;;;11.37;88.17
12793;BME280;6460;42.684;23.260;2023-05-10T10:36:39;94858.38;;;11.41;88.46
12793;BME280;6460;42.684;23.260;2023-05-10T10:39:09;94852.94;;;11.38;88.00
12793;BME280;6460;42.684;23.260;2023-05-10T10:41:37;94852.69;;;11.27;88.94
12793;BME280;6460;42.684;23.260;2023-05-10T10:44:26;94842.50;;;11.36;87.39
12793;BME280;6460;42.684;23.260;2023-05-10T10:47:05;94850.03;;;11.46;88.08
12793;BME280;6460;42.684;23.260;2023-05-10T10:49:43;94864.63;;;11.45;87.80
12793;BME280;6460;42.684;23.260;2023-05-10T10:52:25;94860.00;;;11.27;87.08
12793;BME280;6460;42.684;23.260;2023-05-10T10:54:59;94858.63;;;11.17;88.21
12793;BME280;6460;42.684;23.260;2023-05-10T10:57:28;94855.22;;;11.20;88.65
12793;BME280;6460;42.684;23.260;2023-05-10T11:00:19;94854.13;;;11.21;89.16
12793;BME280;6460;42.684;23.260;2023-05-10T11:02:49;94859.75;;;10.97;88.57
12793;BME280;6460;42.684;23.260;2023-05-10T11:05:45;94861.28;;;11.52;88.45
12793;BME280;6460;42.684;23.260;2023-05-10T11:08:17;94857.47;;;11.53;87.82
12793;BME280;6460;42.684;23.260;2023-05-10T11:11:02;94856.13;;;11.43;88.24
12793;BME280;6460;42.684;23.260;2023-05-10T11:13:34;94854.44;;;11.35;87.27
12793;BME280;6460;42.684;23.260;2023-05-10T11:16:15;94850.31;;;11.41;87.53
12793;BME280;6460;42.684;23.260;2023-05-10T11:18:54;94842.19;;;11.76;87.08
12793;BME280;6460;42.684;23.260;2023-05-10T11:21:24;94845.13;;;11.33;88.23
12793;BME280;6460;42.684;23.260;2023-05-10T11:23:53;94857.69;;;11.44;86.77
12793;BME280;6460;42.684;23.260;2023-05-10T11:26:22;94851.03;;;11.38;88.58
12793;BME280;6460;42.684;23.260;2023-05-10T11:28:52;94850.59;;;11.36;87.82
12793;BME280;6460;42.684;23.260;2023-05-10T11:31:20;94847.09;;;11.71;87.94
12793;BME280;6460;42.684;23.260;2023-05-10T11:33:49;94849.34;;;11.88;88.03
12793;BME280;6460;42.684;23.260;2023-05-10T11:36:17;94840.69;;;11.40;87.32
12793;BME280;6460;42.684;23.260;2023-05-10T11:38:46;94852.00;;;11.68;87.63
12793;BME280;6460;42.684;23.260;2023-05-10T11:41:17;94849.34;;;11.88;86.65
12793;BME280;6460;42.684;23.260;2023-05-10T11:43:48;94846.06;;;11.98;86.95
12793;BME280;6460;42.684;23.260;2023-05-10T11:46:18;94849.16;;;12.00;85.65
12793;BME280;6460;42.684;23.260;2023-05-10T11:48:46;94841.53;;;12.02;86.32
12793;BME280;6460;42.684;23.260;2023-05-10T11:51:13;94849.84;;;12.39;85.64
12793;BME280;6460;42.684;23.260;2023-05-10T11:53:40;94837.28;;;11.62;86.34
12793;BME280;6460;42.684;23.260;2023-05-10T11:56:10;94835.28;;;11.98;86.85
12793;BME280;6460;42.684;23.260;2023-05-10T11:58:39;94838.00;;;11.59;87.00
12793;BME280;6460;42.684;23.260;2023-05-10T12:01:37;94844.34;;;12.09;86.33
12793;BME280;6460;42.684;23.260;2023-05-10T12:04:05;94842.91;;;12.15;85.85
12793;BME280;6460;42.684;23.260;2023-05-10T12:06:36;94833.28;;;12.14;87.78
12793;BME280;6460;42.684;23.260;2023-05-10T12:33:13;94819.28;;;11.86;85.99
12793;BME280;6460;42.684;23.260;2023-05-10T12:35:46;94822.25;;;11.61;87.55
12793;BME280;6460;42.684;23.260;2023-05-10T12:40:43;94818.00;;;11.99;87.23
12793;BME280;6460;42.684;23.260;2023-05-10T12:43:10;94807.09;;;11.92;88.00
12793;BME280;6460;42.684;23.260;2023-05-10T12:45:37;94810.22;;;11.55;88.79
12793;BME280;6460;42.684;23.260;2023-05-10T12:48:04;94810.66;;;11.77;88.49
12793;BME280;6460;42.684;23.260;2023-05-10T12:50:32;94820.56;;;11.53;88.60
12793;BME280;6460;42.684;23.260;2023-05-10T12:52:59;94815.19;;;11.53;89.35
12793;BME280;6460;42.684;23.260;2023-05-10T12:55:26;94804.34;;;11.50;89.31
12793;BME280;6460;42.684;23.260;2023-05-10T12:57:53;94809.50;;;11.58;89.53
12793;BME280;6460;42.684;23.260;2023-05-10T13:00:20;94801.47;;;12.00;88.88
12793;BME280;6460;42.684;23.260;2023-05-10T13:02:47;94795.16;;;11.70;87.43
12793;BME280;6460;42.684;23.260;2023-05-10T13:05:14;94795.78;;;11.63;88.13
12793;BME280;6460;42.684;23.260;2023-05-10T13:07:43;94796.72;;;11.94;88.45
12793;BME280;6460;42.684;23.260;2023-05-10T13:10:11;94794.78;;;11.72;89.74
12793;BME280;6460;42.684;23.260;2023-05-10T13:28:20;94767.72;;;11.84;89.19
12793;BME280;6460;42.684;23.260;2023-05-10T13:30:47;94775.03;;;11.64;89.14
12793;BME280;6460;42.684;23.260;2023-05-10T13:33:14;94775.09;;;11.67;89.19
12793;BME280;6460;42.684;23.260;2023-05-10T13:35:41;94761.03;;;11.78;89.22
12793;BME280;6460;42.684;23.260;2023-05-10T13:38:08;94773.38;;;11.59;89.48
12793;BME280;6460;42.684;23.260;2023-05-10T13:40:35;94759.78;;;11.72;89.75
12793;BME280;6460;42.684;23.260;2023-05-10T13:43:02;94760.81;;;11.44;90.24
12793;BME280;6460;42.684;23.260;2023-05-10T13:45:30;94760.72;;;11.41;91.12
12793;BME280;6460;42.684;23.260;2023-05-10T13:47:57;94759.94;;;11.40;90.40
12793;BME280;6460;42.684;23.260;2023-05-10T13:50:24;94761.78;;;11.36;91.24
12793;BME280;6460;42.684;23.260;2023-05-10T13:52:51;94749.03;;;11.33;90.12
12793;BME280;6460;42.684;23.260;2023-05-10T13:58:40;94759.69;;;11.26;90.55